createdAt,value
2018-05-13T00:00:21.651Z,16.56
2018-05-13T00:01:25.809Z,16.61
2018-05-13T00:02:29.920Z,16.58
2018-05-13T00:03:34.048Z,16.54
2018-05-13T00:04:38.281Z,16.47
2018-05-13T00:05:42.433Z,16.48
2018-05-13T00:06:46.588Z,16.44
2018-05-13T00:07:50.729Z,16.42
2018-05-13T00:08:54.937Z,16.45
2018-05-13T00:09:59.059Z,16.41
2018-05-13T00:11:03.203Z,16.35
2018-05-13T00:12:07.662Z,16.39
2018-05-13T00:13:11.901Z,16.54
2018-05-13T00:14:16.884Z,16.48
2018-05-13T00:15:21.290Z,16.49
2018-05-13T00:16:25.489Z,16.56
2018-05-13T00:17:29.637Z,16.62
2018-05-13T00:18:34.188Z,16.61
2018-05-13T00:19:38.293Z,16.53
2018-05-13T00:20:42.511Z,16.55
2018-05-13T00:21:46.656Z,16.57
2018-05-13T00:22:50.805Z,16.48
2018-05-13T00:23:54.936Z,16.40
2018-05-13T00:24:59.428Z,16.34
2018-05-13T00:26:03.664Z,16.28
2018-05-13T00:27:07.778Z,16.28
2018-05-13T00:28:11.921Z,16.37
2018-05-13T00:29:16.734Z,16.38
2018-05-13T00:30:21.566Z,16.44
2018-05-13T00:31:25.807Z,16.41
2018-05-13T00:32:29.957Z,16.51
2018-05-13T00:33:34.061Z,16.53
2018-05-13T00:34:38.283Z,16.50
2018-05-13T00:35:42.408Z,16.51
2018-05-13T00:36:46.837Z,16.58
2018-05-13T00:37:51.038Z,16.52
2018-05-13T00:38:55.183Z,16.45
2018-05-13T00:39:59.421Z,16.49
2018-05-13T00:41:03.678Z,16.48
2018-05-13T00:42:07.868Z,16.45
2018-05-13T00:43:12.921Z,16.40
2018-05-13T00:44:17.075Z,16.40
2018-05-13T00:45:21.635Z,16.41
2018-05-13T00:46:25.773Z,16.29
2018-05-13T00:47:29.879Z,16.28
2018-05-13T00:48:34.008Z,16.34
2018-05-13T00:49:38.519Z,16.45
2018-05-13T00:50:42.638Z,16.40
2018-05-13T00:51:46.775Z,16.39
2018-05-13T00:52:51.005Z,16.33
2018-05-13T00:53:55.149Z,16.29
2018-05-13T00:54:59.356Z,16.22
2018-05-13T00:56:03.538Z,16.10
2018-05-13T00:57:07.763Z,16.05
2018-05-13T00:58:11.908Z,16.04
2018-05-13T00:59:16.038Z,16.10
2018-05-13T01:00:20.562Z,16.03
2018-05-13T01:01:24.678Z,15.99
2018-05-13T01:02:29.107Z,15.97
2018-05-13T01:03:33.249Z,15.97
2018-05-13T01:04:37.447Z,15.96
2018-05-13T01:05:41.583Z,16.08
2018-05-13T01:06:45.707Z,16.21
2018-05-13T01:07:50.024Z,16.17
2018-05-13T01:08:54.516Z,16.21
2018-05-13T01:09:58.621Z,16.40
2018-05-13T01:11:02.831Z,16.45
2018-05-13T01:12:06.973Z,16.40
2018-05-13T01:13:11.192Z,16.33
2018-05-13T01:14:15.331Z,16.36
2018-05-13T01:15:23.741Z,16.27
2018-05-13T01:16:27.937Z,16.18
2018-05-13T01:17:32.073Z,16.09
2018-05-13T01:18:36.239Z,16.11
2018-05-13T01:19:40.421Z,16.13
2018-05-13T01:20:44.661Z,16.15
2018-05-13T01:21:49.086Z,16.27
2018-05-13T01:22:53.219Z,16.39
2018-05-13T01:23:57.333Z,16.35
2018-05-13T01:25:01.502Z,16.31
2018-05-13T01:26:05.697Z,16.22
2018-05-13T01:27:10.159Z,16.17
2018-05-13T01:28:14.293Z,16.07
2018-05-13T01:29:18.565Z,15.93
2018-05-13T01:30:23.171Z,15.99
2018-05-13T01:31:27.591Z,16.01
2018-05-13T01:32:31.721Z,16.00
2018-05-13T01:33:36.250Z,16.03
2018-05-13T01:34:40.454Z,15.97
2018-05-13T01:35:44.563Z,15.97
2018-05-13T01:36:48.687Z,15.88
2018-05-13T01:37:53.087Z,15.87
2018-05-13T01:38:57.669Z,16.02
2018-05-13T01:40:02.756Z,16.09
2018-05-13T01:41:07.172Z,16.19
2018-05-13T01:42:12.006Z,16.14
2018-05-13T01:43:16.808Z,16.11
2018-05-13T01:44:21.920Z,16.02
2018-05-13T01:45:26.593Z,15.92
2018-05-13T01:46:30.968Z,15.88
2018-05-13T01:47:35.179Z,15.87
2018-05-13T01:48:39.354Z,15.77
2018-05-13T01:49:43.502Z,15.83
2018-05-13T01:50:47.622Z,15.85
2018-05-13T01:51:51.725Z,15.81
2018-05-13T01:52:56.234Z,15.81
2018-05-13T01:54:00.382Z,15.80
2018-05-13T01:55:04.533Z,15.79
2018-05-13T01:56:08.656Z,15.82
2018-05-13T01:57:12.772Z,15.94
2018-05-13T01:58:16.900Z,15.94
2018-05-13T01:59:21.341Z,15.96
2018-05-13T02:00:27.159Z,15.95
2018-05-13T02:01:31.278Z,15.98
2018-05-13T02:02:35.399Z,15.96
2018-05-13T02:03:39.588Z,15.91
2018-05-13T02:04:43.771Z,15.79
2018-05-13T02:05:48.248Z,15.76
2018-05-13T02:06:52.364Z,15.78
2018-05-13T02:07:56.486Z,15.71
2018-05-13T02:09:00.652Z,15.86
2018-05-13T02:10:04.960Z,15.81
2018-05-13T02:11:09.075Z,15.69
2018-05-13T02:12:13.564Z,15.76
2018-05-13T02:13:17.705Z,15.79
2018-05-13T02:14:21.803Z,15.73
2018-05-13T02:15:26.437Z,15.79
2018-05-13T02:16:30.636Z,15.82
2018-05-13T02:17:35.135Z,15.75
2018-05-13T02:18:39.353Z,15.79
2018-05-13T02:19:43.493Z,15.80
2018-05-13T02:20:47.705Z,15.68
2018-05-13T02:21:51.813Z,15.62
2018-05-13T02:22:56.055Z,15.67
2018-05-13T02:24:00.493Z,15.62
2018-05-13T02:25:04.637Z,15.51
2018-05-13T02:26:08.861Z,15.43
2018-05-13T02:27:13.003Z,15.42
2018-05-13T02:28:17.236Z,15.50
2018-05-13T02:29:21.369Z,15.49
2018-05-13T02:30:26.336Z,15.51
2018-05-13T02:31:31.274Z,15.51
2018-05-13T02:32:35.430Z,15.50
2018-05-13T02:33:39.620Z,15.58
2018-05-13T02:34:43.794Z,15.59
2018-05-13T02:35:47.914Z,15.57
2018-05-13T02:36:52.065Z,15.56
2018-05-13T02:37:56.389Z,15.45
2018-05-13T02:39:00.592Z,15.46
2018-05-13T02:40:04.772Z,15.52
2018-05-13T02:41:08.880Z,15.55
2018-05-13T02:42:13.152Z,15.50
2018-05-13T02:43:17.624Z,15.53
2018-05-13T02:44:21.780Z,15.42
2018-05-13T02:45:26.228Z,15.36
2018-05-13T02:46:30.851Z,15.35
2018-05-13T02:47:35.639Z,15.32
2018-05-13T02:48:39.802Z,15.44
2018-05-13T02:49:44.246Z,15.43
2018-05-13T02:50:48.510Z,15.37
2018-05-13T02:51:52.652Z,15.33
2018-05-13T02:52:56.793Z,15.29
2018-05-13T02:54:00.902Z,15.26
2018-05-13T02:55:05.137Z,15.29
2018-05-13T02:56:09.400Z,15.31
2018-05-13T02:57:13.620Z,15.34
2018-05-13T02:58:17.745Z,15.41
2018-05-13T02:59:22.460Z,15.36
2018-05-13T03:00:26.949Z,15.28
2018-05-13T03:01:31.992Z,15.21
2018-05-13T03:02:36.735Z,15.08
2018-05-13T03:03:41.872Z,15.12
2018-05-13T03:04:46.041Z,15.15
2018-05-13T03:05:50.148Z,15.19
2018-05-13T03:06:54.255Z,15.19
2018-05-13T03:07:58.384Z,15.22
2018-05-13T03:09:02.750Z,15.29
2018-05-13T03:10:06.940Z,15.32
2018-05-13T03:11:11.124Z,15.25
2018-05-13T03:12:15.560Z,15.24
2018-05-13T03:13:19.668Z,15.14
2018-05-13T03:14:23.804Z,15.07
2018-05-13T03:15:28.173Z,15.26
2018-05-13T03:16:33.332Z,15.30
2018-05-13T03:17:38.103Z,15.35
2018-05-13T03:18:42.544Z,15.28
2018-05-13T03:19:46.713Z,15.41
2018-05-13T03:20:50.864Z,15.45
2018-05-13T03:21:55.003Z,15.44
2018-05-13T03:22:59.206Z,15.49
2018-05-13T03:24:03.419Z,15.45
2018-05-13T03:25:07.848Z,15.32
2018-05-13T03:26:12.064Z,15.39
2018-05-13T03:27:16.201Z,15.47
2018-05-13T03:28:20.455Z,15.53
2018-05-13T03:29:24.576Z,15.49
2018-05-13T03:30:29.012Z,15.59
2018-05-13T03:31:33.446Z,15.67
2018-05-13T03:32:37.644Z,15.63
2018-05-13T03:33:42.356Z,15.53
2018-05-13T03:34:46.452Z,15.41
2018-05-13T03:35:50.567Z,15.46
2018-05-13T03:36:54.690Z,15.37
2018-05-13T03:37:58.946Z,15.43
2018-05-13T03:39:03.102Z,15.41
2018-05-13T03:40:07.241Z,15.36
2018-05-13T03:41:11.492Z,15.45
2018-05-13T03:42:15.952Z,15.58
2018-05-13T03:43:20.060Z,15.57
2018-05-13T03:44:24.269Z,15.52
2018-05-13T03:45:30.144Z,15.50
2018-05-13T03:46:34.714Z,15.53
2018-05-13T03:47:40.589Z,15.52
2018-05-13T03:48:45.038Z,15.52
2018-05-13T03:49:49.148Z,15.44
2018-05-13T03:50:53.382Z,15.39
2018-05-13T03:51:57.527Z,15.31
2018-05-13T03:53:01.660Z,15.24
2018-05-13T03:54:05.753Z,15.18
2018-05-13T03:55:10.274Z,15.25
2018-05-13T03:56:14.396Z,15.32
2018-05-13T03:57:18.496Z,15.33
2018-05-13T03:58:22.758Z,15.30
2018-05-13T03:59:26.875Z,15.31
2018-05-13T04:00:31.272Z,15.54
2018-05-13T04:01:35.710Z,15.46
2018-05-13T04:02:39.902Z,15.43
2018-05-13T04:03:44.029Z,15.39
2018-05-13T04:04:48.219Z,15.40
2018-05-13T04:05:52.448Z,15.55
2018-05-13T04:06:56.596Z,15.63
2018-05-13T04:08:03.722Z,15.64
2018-05-13T04:09:18.800Z,15.65
2018-05-13T04:11:35.391Z,15.66
2018-05-13T04:14:55.180Z,15.76
2018-05-13T04:15:59.684Z,15.80
2018-05-13T04:17:04.092Z,15.90
2018-05-13T04:18:08.196Z,15.89
2018-05-13T04:19:12.619Z,15.95
2018-05-13T04:20:16.758Z,16.01
2018-05-13T04:21:20.912Z,16.03
2018-05-13T04:22:25.014Z,16.06
2018-05-13T04:23:29.113Z,16.08
2018-05-13T04:24:33.751Z,16.11
2018-05-13T04:25:38.271Z,16.14
2018-05-13T04:26:43.189Z,15.99
2018-05-13T04:27:47.316Z,16.11
2018-05-13T04:28:51.428Z,16.27
2018-05-13T04:29:55.583Z,16.30
2018-05-13T04:31:00.066Z,16.23
2018-05-13T04:32:04.521Z,16.34
2018-05-13T04:33:08.659Z,16.48
2018-05-13T04:34:12.837Z,16.45
2018-05-13T04:35:16.965Z,16.45
2018-05-13T04:36:21.085Z,16.48
2018-05-13T04:37:25.308Z,16.51
2018-05-13T04:38:29.403Z,16.53
2018-05-13T04:39:33.500Z,16.65
2018-05-13T04:40:37.645Z,16.67
2018-05-13T04:41:42.455Z,16.81
2018-05-13T04:42:46.760Z,17.03
2018-05-13T04:43:51.223Z,17.04
2018-05-13T04:44:55.544Z,16.96
2018-05-13T04:45:59.930Z,16.97
2018-05-13T04:47:04.125Z,17.04
2018-05-13T04:48:08.263Z,17.21
2018-05-13T04:49:12.470Z,17.23
2018-05-13T04:50:16.892Z,17.39
2018-05-13T04:51:21.044Z,17.60
2018-05-13T04:52:25.236Z,17.52
2018-05-13T04:53:29.409Z,17.49
2018-05-13T04:54:33.589Z,17.50
2018-05-13T04:55:37.787Z,17.74
2018-05-13T04:56:42.840Z,17.96
2018-05-13T04:57:46.963Z,17.93
2018-05-13T04:58:51.097Z,17.84
2018-05-13T04:59:55.327Z,17.93
2018-05-13T05:00:59.814Z,18.02
2018-05-13T05:02:03.916Z,17.86
2018-05-13T05:03:08.035Z,17.91
2018-05-13T05:04:12.238Z,17.98
2018-05-13T05:05:16.367Z,17.91
2018-05-13T05:06:20.499Z,18.09
2018-05-13T05:07:24.623Z,18.27
2018-05-13T05:08:28.762Z,18.39
2018-05-13T05:09:33.281Z,18.53
2018-05-13T05:10:37.393Z,18.53
2018-05-13T05:11:41.603Z,18.50
2018-05-13T05:12:46.657Z,18.35
2018-05-13T05:13:51.701Z,18.16
2018-05-13T05:14:55.955Z,18.27
2018-05-13T05:16:01.125Z,18.37
2018-05-13T05:17:05.261Z,18.45
2018-05-13T05:18:09.441Z,18.42
2018-05-13T05:19:13.647Z,18.52
2018-05-13T05:20:17.785Z,18.44
2018-05-13T05:21:21.971Z,18.46
2018-05-13T05:22:26.442Z,18.62
2018-05-13T05:23:30.589Z,18.70
2018-05-13T05:24:34.805Z,18.69
2018-05-13T05:25:38.968Z,18.74
2018-05-13T05:26:43.187Z,18.66
2018-05-13T05:27:47.395Z,18.75
2018-05-13T05:28:51.583Z,18.78
2018-05-13T05:29:55.869Z,18.72
2018-05-13T05:31:01.154Z,18.69
2018-05-13T05:32:05.783Z,18.81
2018-05-13T05:33:09.960Z,18.75
2018-05-13T05:34:14.403Z,18.86
2018-05-13T05:35:18.531Z,18.94
2018-05-13T05:36:22.629Z,18.94
2018-05-13T05:37:26.827Z,18.92
2018-05-13T05:38:30.993Z,19.00
2018-05-13T05:39:35.427Z,19.16
2018-05-13T05:40:39.926Z,19.27
2018-05-13T05:41:44.596Z,19.35
2018-05-13T05:42:49.195Z,19.40
2018-05-13T05:43:54.101Z,19.50
2018-05-13T05:44:58.219Z,19.56
2018-05-13T05:46:03.391Z,19.68
2018-05-13T05:47:07.875Z,19.77
2018-05-13T05:48:12.124Z,19.72
2018-05-13T05:49:16.256Z,19.76
2018-05-13T05:50:20.386Z,19.92
2018-05-13T05:51:24.531Z,20.00
2018-05-13T05:52:28.992Z,20.12
2018-05-13T05:53:33.205Z,20.18
2018-05-13T05:54:37.345Z,20.18
2018-05-13T05:55:41.481Z,20.29
2018-05-13T05:56:45.605Z,20.30
2018-05-13T05:57:49.729Z,20.29
2018-05-13T05:58:53.940Z,20.32
2018-05-13T05:59:58.550Z,20.29
2018-05-13T06:01:06.127Z,20.19
2018-05-13T06:02:10.259Z,20.27
2018-05-13T06:03:14.447Z,20.24
2018-05-13T06:04:18.687Z,20.33
2018-05-13T06:05:23.117Z,20.50
2018-05-13T06:06:27.369Z,20.75
2018-05-13T06:07:31.511Z,20.73
2018-05-13T06:08:35.750Z,20.71
2018-05-13T06:09:40.109Z,20.79
2018-05-13T06:10:44.405Z,20.83
2018-05-13T06:11:50.062Z,20.89
2018-05-13T06:12:54.661Z,20.93
2018-05-13T06:13:59.122Z,20.68
2018-05-13T06:15:07.822Z,20.89
2018-05-13T06:16:12.799Z,21.19
2018-05-13T06:17:17.211Z,21.32
2018-05-13T06:18:21.627Z,21.37
2018-05-13T06:19:25.829Z,21.47
2018-05-13T06:20:29.928Z,21.63
2018-05-13T06:21:34.193Z,21.78
2018-05-13T06:22:38.399Z,21.99
2018-05-13T06:23:42.539Z,21.99
2018-05-13T06:24:46.993Z,21.83
2018-05-13T06:25:51.266Z,21.83
2018-05-13T06:26:55.503Z,21.84
2018-05-13T06:27:59.727Z,21.86
2018-05-13T06:29:05.823Z,21.95
2018-05-13T06:30:10.545Z,21.93
2018-05-13T06:31:17.529Z,21.85
2018-05-13T06:32:21.819Z,21.72
2018-05-13T06:33:27.398Z,21.84
2018-05-13T06:34:31.623Z,21.91
2018-05-13T06:35:36.148Z,21.84
2018-05-13T06:36:42.521Z,21.81
2018-05-13T06:37:47.201Z,21.84
2018-05-13T06:38:51.769Z,21.92
2018-05-13T06:39:55.912Z,22.06
2018-05-13T06:41:00.118Z,22.06
2018-05-13T06:42:04.465Z,22.02
2018-05-13T06:43:09.473Z,22.21
2018-05-13T06:44:13.664Z,22.35
2018-05-13T06:45:18.116Z,22.50
2018-05-13T06:46:22.693Z,22.79
2018-05-13T06:47:26.960Z,22.87
2018-05-13T06:48:32.123Z,22.92
2018-05-13T06:49:36.653Z,23.04
2018-05-13T06:50:41.163Z,23.18
2018-05-13T06:51:45.533Z,23.25
2018-05-13T06:52:50.050Z,23.28
2018-05-13T06:53:54.681Z,23.24
2018-05-13T06:54:59.273Z,23.06
2018-05-13T06:56:04.325Z,23.07
2018-05-13T06:57:09.877Z,23.25
2018-05-13T06:58:13.995Z,23.34
2018-05-13T06:59:18.117Z,23.41
2018-05-13T07:00:22.345Z,23.61
2018-05-13T07:01:26.460Z,23.68
2018-05-13T07:02:30.585Z,23.65
2018-05-13T07:03:35.153Z,23.68
2018-05-13T07:04:39.257Z,23.88
2018-05-13T07:05:43.577Z,23.85
2018-05-13T07:06:47.769Z,23.72
2018-05-13T07:07:52.326Z,23.72
2018-05-13T07:08:56.647Z,23.74
2018-05-13T07:10:00.865Z,23.73
2018-05-13T07:11:05.353Z,23.80
2018-05-13T07:12:10.437Z,23.79
2018-05-13T07:13:14.581Z,23.81
2018-05-13T07:14:19.089Z,23.96
2018-05-13T07:15:23.741Z,24.08
2018-05-13T07:16:27.935Z,24.17
2018-05-13T07:17:32.061Z,24.21
2018-05-13T07:18:36.161Z,23.98
2018-05-13T07:19:40.290Z,24.07
2018-05-13T07:20:44.829Z,24.21
2018-05-13T07:21:48.976Z,24.28
2018-05-13T07:22:53.079Z,24.15
2018-05-13T07:23:57.672Z,24.09
2018-05-13T07:25:02.069Z,24.07
2018-05-13T07:26:07.060Z,24.12
2018-05-13T07:27:12.474Z,24.20
2018-05-13T07:28:17.283Z,24.17
2018-05-13T07:29:21.752Z,24.14
2018-05-13T07:30:26.352Z,24.16
2018-05-13T07:31:30.736Z,24.17
2018-05-13T07:32:35.047Z,24.10
2018-05-13T07:33:39.606Z,24.22
2018-05-13T07:34:43.928Z,24.37
2018-05-13T07:35:48.193Z,24.43
2018-05-13T07:36:52.687Z,24.43
2018-05-13T07:37:57.369Z,24.46
2018-05-13T07:39:01.600Z,24.40
2018-05-13T07:40:06.524Z,24.41
2018-05-13T07:41:11.300Z,24.52
2018-05-13T07:42:15.506Z,24.73
2018-05-13T07:43:19.695Z,24.73
2018-05-13T07:44:23.865Z,24.80
2018-05-13T07:45:28.769Z,24.87
2018-05-13T07:46:33.711Z,24.94
2018-05-13T07:47:37.944Z,25.14
2018-05-13T07:48:42.093Z,25.31
2018-05-13T07:49:46.297Z,25.34
2018-05-13T07:50:50.528Z,25.32
2018-05-13T07:51:55.315Z,25.25
2018-05-13T07:53:00.162Z,25.10
2018-05-13T07:54:04.302Z,25.08
2018-05-13T07:55:09.897Z,25.16
2018-05-13T07:56:14.012Z,25.14
2018-05-13T07:57:18.155Z,25.23
2018-05-13T07:58:22.321Z,25.28
2018-05-13T07:59:26.853Z,25.36
2018-05-13T08:00:31.706Z,25.23
2018-05-13T08:01:35.901Z,25.15
2018-05-13T08:02:40.057Z,25.13
2018-05-13T08:03:44.228Z,25.23
2018-05-13T08:04:48.420Z,25.40
2018-05-13T08:05:52.839Z,25.53
2018-05-13T08:06:57.158Z,25.76
2018-05-13T08:08:01.413Z,25.94
2018-05-13T08:09:06.078Z,26.06
2018-05-13T08:10:10.901Z,26.17
2018-05-13T08:11:15.376Z,26.25
2018-05-13T08:12:19.486Z,26.28
2018-05-13T08:13:23.789Z,26.48
2018-05-13T08:14:27.948Z,26.71
2018-05-13T08:15:32.340Z,26.92
2018-05-13T08:16:36.522Z,27.01
2018-05-13T08:17:41.056Z,27.13
2018-05-13T08:18:45.194Z,27.38
2018-05-13T08:19:49.328Z,27.45
2018-05-13T08:20:53.547Z,27.61
2018-05-13T08:21:57.681Z,27.64
2018-05-13T08:23:01.881Z,27.56
2018-05-13T08:24:07.245Z,27.53
2018-05-13T08:25:11.893Z,27.62
2018-05-13T08:26:16.125Z,27.59
2018-05-13T08:27:20.237Z,27.71
2018-05-13T08:28:24.386Z,27.73
2018-05-13T08:29:28.578Z,27.49
2018-05-13T08:30:32.963Z,27.45
2018-05-13T08:31:37.109Z,27.36
2018-05-13T08:32:41.242Z,27.31
2018-05-13T08:33:45.470Z,26.95
2018-05-13T08:34:49.599Z,26.87
2018-05-13T08:35:54.118Z,27.16
2018-05-13T08:36:58.718Z,27.43
2018-05-13T08:38:02.982Z,27.69
2018-05-13T08:39:07.319Z,27.72
2018-05-13T08:40:13.196Z,28.06
2018-05-13T08:41:17.443Z,28.28
2018-05-13T08:42:21.607Z,28.01
2018-05-13T08:43:26.177Z,27.88
2018-05-13T08:44:30.327Z,27.75
2018-05-13T08:45:34.816Z,27.65
2018-05-13T08:46:39.068Z,27.92
2018-05-13T08:47:43.187Z,28.13
2018-05-13T08:48:47.770Z,28.47
2018-05-13T08:49:51.926Z,28.77
2018-05-13T08:50:56.081Z,29.05
2018-05-13T08:52:00.246Z,29.34
2018-05-13T08:53:04.419Z,29.53
2018-05-13T08:54:08.745Z,29.66
2018-05-13T08:55:12.963Z,29.70
2018-05-13T08:56:17.255Z,29.90
2018-05-13T08:57:21.459Z,29.79
2018-05-13T08:58:25.581Z,29.67
2018-05-13T08:59:29.804Z,30.00
2018-05-13T09:00:34.235Z,30.02
2018-05-13T09:01:38.385Z,30.28
2018-05-13T09:02:42.523Z,30.23
2018-05-13T09:03:46.657Z,30.18
2018-05-13T09:04:50.823Z,30.12
2018-05-13T09:05:55.081Z,30.07
2018-05-13T09:06:59.558Z,29.98
2018-05-13T09:08:04.560Z,29.64
2018-05-13T09:09:08.774Z,29.56
2018-05-13T09:10:12.904Z,29.58
2018-05-13T09:11:17.048Z,29.85
2018-05-13T09:12:21.188Z,30.24
2018-05-13T09:13:25.683Z,30.50
2018-05-13T09:14:29.960Z,30.50
2018-05-13T09:15:34.248Z,30.39
2018-05-13T09:16:39.027Z,30.24
2018-05-13T09:17:43.184Z,30.35
2018-05-13T09:18:47.395Z,30.14
2018-05-13T09:19:51.902Z,30.01
2018-05-13T09:20:56.135Z,30.14
2018-05-13T09:22:00.607Z,30.16
2018-05-13T09:23:04.793Z,30.15
2018-05-13T09:24:09.451Z,30.51
2018-05-13T09:25:14.462Z,30.60
2018-05-13T09:26:18.666Z,30.65
2018-05-13T09:27:22.879Z,30.47
2018-05-13T09:28:27.118Z,30.60
2018-05-13T09:29:31.258Z,30.79
2018-05-13T09:30:35.697Z,30.81
2018-05-13T09:31:39.844Z,30.51
2018-05-13T09:32:43.992Z,30.58
2018-05-13T09:33:48.129Z,31.00
2018-05-13T09:34:52.435Z,31.35
2018-05-13T09:35:56.591Z,31.60
2018-05-13T09:37:01.072Z,32.14
2018-05-13T09:38:06.342Z,32.64
2018-05-13T09:39:11.358Z,32.75
2018-05-13T09:40:15.637Z,32.92
2018-05-13T09:41:19.837Z,33.02
2018-05-13T09:42:24.028Z,33.30
2018-05-13T09:43:28.557Z,33.32
2018-05-13T09:44:32.751Z,33.17
2018-05-13T09:45:37.318Z,32.87
2018-05-13T09:46:41.461Z,32.63
2018-05-13T09:47:45.690Z,32.51
2018-05-13T09:48:49.846Z,32.29
2018-05-13T09:49:54.418Z,31.99
2018-05-13T09:50:58.575Z,31.71
2018-05-13T09:52:02.781Z,31.91
2018-05-13T09:53:06.954Z,32.29
2018-05-13T09:54:11.105Z,32.73
2018-05-13T09:55:15.348Z,33.08
2018-05-13T09:56:19.504Z,32.86
2018-05-13T09:57:23.828Z,32.32
2018-05-13T09:58:27.944Z,31.85
2018-05-13T09:59:32.177Z,32.03
2018-05-13T10:00:38.545Z,32.55
2018-05-13T10:01:43.192Z,33.03
2018-05-13T10:02:47.771Z,33.27
2018-05-13T10:03:51.974Z,33.38
2018-05-13T10:04:56.266Z,33.48
2018-05-13T10:06:00.456Z,33.66
2018-05-13T10:07:05.522Z,33.71
2018-05-13T10:08:09.852Z,33.79
2018-05-13T10:09:14.298Z,34.02
2018-05-13T10:10:18.532Z,34.10
2018-05-13T10:11:22.799Z,33.98
2018-05-13T10:12:26.983Z,33.90
2018-05-13T10:13:31.108Z,33.96
2018-05-13T10:14:35.202Z,33.93
2018-05-13T10:15:40.045Z,33.64
2018-05-13T10:16:44.329Z,33.31
2018-05-13T10:17:51.596Z,32.66
2018-05-13T10:18:56.026Z,32.43
2018-05-13T10:20:00.163Z,32.31
2018-05-13T10:21:04.331Z,32.86
2018-05-13T10:22:08.897Z,32.91
2018-05-13T10:23:13.043Z,33.39
2018-05-13T10:24:17.240Z,33.75
2018-05-13T10:25:21.552Z,34.13
2018-05-13T10:26:25.761Z,34.62
2018-05-13T10:27:30.406Z,34.53
2018-05-13T10:28:34.532Z,34.68
2018-05-13T10:29:38.752Z,34.71
2018-05-13T10:30:43.171Z,34.85
2018-05-13T10:31:47.309Z,35.15
2018-05-13T10:32:51.464Z,35.23
2018-05-13T10:33:55.610Z,34.98
2018-05-13T10:34:59.893Z,34.97
2018-05-13T10:36:04.293Z,35.28
2018-05-13T10:37:08.436Z,35.82
2018-05-13T10:38:14.240Z,36.32
2018-05-13T10:39:18.675Z,36.44
2018-05-13T10:40:22.790Z,35.82
2018-05-13T10:41:27.047Z,35.59
2018-05-13T10:42:31.290Z,35.43
2018-05-13T10:43:35.387Z,35.39
2018-05-13T10:44:39.504Z,35.11
2018-05-13T10:45:43.974Z,34.84
2018-05-13T10:46:48.223Z,34.82
2018-05-13T10:47:52.435Z,34.96
2018-05-13T10:48:56.590Z,34.81
2018-05-13T10:50:00.741Z,34.74
2018-05-13T10:51:05.223Z,34.71
2018-05-13T10:52:09.448Z,34.10
2018-05-13T10:53:13.937Z,33.78
2018-05-13T10:54:18.101Z,34.01
2018-05-13T10:55:22.247Z,34.31
2018-05-13T10:56:26.493Z,34.82
2018-05-13T10:57:31.060Z,35.08
2018-05-13T10:58:35.292Z,35.30
2018-05-13T10:59:39.439Z,34.90
2018-05-13T11:00:43.754Z,34.87
2018-05-13T11:01:48.072Z,34.56
2018-05-13T11:02:52.648Z,34.55
2018-05-13T11:05:03.433Z,34.94
2018-05-13T11:06:07.595Z,34.78
2018-05-13T11:07:11.811Z,34.92
2018-05-13T11:08:15.917Z,34.75
2018-05-13T11:09:20.082Z,34.54
2018-05-13T11:10:24.513Z,34.64
2018-05-13T11:11:28.799Z,34.38
2018-05-13T11:12:32.980Z,34.62
2018-05-13T11:13:37.144Z,34.98
2018-05-13T11:14:41.346Z,35.25
2018-05-13T11:15:45.477Z,35.86
2018-05-13T11:16:49.799Z,35.88
2018-05-13T11:17:54.081Z,36.22
2018-05-13T11:18:58.388Z,36.37
2018-05-13T11:20:02.668Z,36.33
2018-05-13T11:21:06.927Z,36.43
2018-05-13T11:22:12.184Z,36.37
2018-05-13T11:23:16.335Z,36.33
2018-05-13T11:24:20.436Z,36.26
2018-05-13T11:25:24.659Z,36.73
2018-05-13T11:26:28.875Z,36.52
2018-05-13T11:27:32.986Z,36.84
2018-05-13T11:28:37.095Z,37.27
2018-05-13T11:29:41.299Z,37.74
2018-05-13T11:30:45.428Z,37.06
2018-05-13T11:31:49.580Z,36.31
2018-05-13T11:32:53.767Z,35.69
2018-05-13T11:33:58.081Z,35.33
2018-05-13T11:35:04.106Z,34.96
2018-05-13T11:36:08.256Z,34.61
2018-05-13T11:37:12.472Z,34.82
2018-05-13T11:38:16.721Z,35.11
2018-05-13T11:39:20.945Z,35.10
2018-05-13T11:40:25.361Z,35.51
2018-05-13T11:41:29.606Z,35.76
2018-05-13T11:42:33.829Z,35.71
2018-05-13T11:43:37.965Z,36.19
2018-05-13T11:44:42.088Z,36.30
2018-05-13T11:45:46.509Z,36.48
2018-05-13T11:46:51.338Z,37.28
2018-05-13T11:47:55.889Z,37.82
2018-05-13T11:49:00.083Z,38.88
2018-05-13T11:50:05.409Z,39.21
2018-05-13T11:51:09.553Z,39.25
2018-05-13T11:52:13.820Z,38.74
2018-05-13T11:53:17.970Z,38.67
2018-05-13T11:54:22.199Z,38.34
2018-05-13T11:55:26.394Z,37.66
2018-05-13T11:56:30.562Z,36.59
2018-05-13T11:57:35.132Z,35.67
2018-05-13T11:58:39.257Z,34.88
2018-05-13T11:59:43.377Z,35.25
2018-05-13T12:00:47.924Z,35.97
2018-05-13T12:01:53.137Z,35.77
2018-05-13T12:02:57.421Z,35.80
2018-05-13T12:04:02.716Z,36.60
2018-05-13T12:05:07.480Z,36.97
2018-05-13T12:06:11.730Z,37.46
2018-05-13T12:07:16.665Z,37.42
2018-05-13T12:08:20.890Z,36.79
2018-05-13T12:09:25.036Z,36.76
2018-05-13T12:10:29.469Z,36.99
2018-05-13T12:11:33.685Z,37.15
2018-05-13T12:12:37.827Z,37.59
2018-05-13T12:13:41.961Z,37.88
2018-05-13T12:14:46.083Z,37.21
2018-05-13T12:15:50.651Z,37.67
2018-05-13T12:16:54.948Z,38.47
2018-05-13T12:17:59.113Z,38.77
2018-05-13T12:19:03.282Z,37.43
2018-05-13T12:20:07.407Z,38.27
2018-05-13T12:21:11.680Z,38.86
2018-05-13T12:22:15.807Z,37.66
2018-05-13T12:23:20.329Z,37.13
2018-05-13T12:24:24.469Z,36.77
2018-05-13T12:25:28.704Z,36.38
2018-05-13T12:26:32.941Z,35.66
2018-05-13T12:27:37.073Z,35.56
2018-05-13T12:28:41.287Z,36.29
2018-05-13T12:29:45.730Z,36.41
2018-05-13T12:30:50.010Z,35.43
2018-05-13T12:31:54.170Z,34.99
2018-05-13T12:32:58.323Z,34.63
2018-05-13T12:34:03.732Z,34.93
2018-05-13T12:35:08.018Z,35.96
2018-05-13T12:36:12.435Z,36.47
2018-05-13T12:37:16.581Z,36.42
2018-05-13T12:38:20.720Z,35.25
2018-05-13T12:39:24.876Z,34.84
2018-05-13T12:40:29.077Z,35.54
2018-05-13T12:41:33.272Z,36.07
2018-05-13T12:42:37.389Z,36.42
2018-05-13T12:43:41.520Z,36.55
2018-05-13T12:44:45.681Z,36.03
2018-05-13T12:45:50.086Z,35.52
2018-05-13T12:46:54.725Z,34.81
2018-05-13T12:47:58.929Z,34.22
2018-05-13T12:49:03.066Z,33.89
2018-05-13T12:50:07.940Z,33.86
2018-05-13T12:51:12.079Z,33.66
2018-05-13T12:52:16.250Z,33.07
2018-05-13T12:53:20.444Z,32.85
2018-05-13T12:54:24.605Z,32.64
2018-05-13T12:55:28.757Z,32.54
2018-05-13T12:56:32.899Z,32.73
2018-05-13T12:57:37.119Z,32.89
2018-05-13T12:58:41.325Z,33.63
2018-05-13T12:59:45.993Z,34.21
2018-05-13T13:00:50.431Z,35.04
2018-05-13T13:01:54.714Z,34.63
2018-05-13T13:02:58.914Z,34.53
2018-05-13T13:04:03.147Z,34.03
2018-05-13T13:05:07.329Z,34.11
2018-05-13T13:06:12.015Z,33.67
2018-05-13T13:07:16.240Z,33.34
2018-05-13T13:08:20.389Z,33.20
2018-05-13T13:09:24.552Z,33.16
2018-05-13T13:10:28.732Z,33.68
2018-05-13T13:11:33.011Z,34.53
2018-05-13T13:13:00.587Z,35.54
2018-05-13T13:14:17.542Z,35.60
2018-05-13T13:15:55.499Z,35.53
2018-05-13T13:17:25.592Z,35.06
2018-05-13T13:18:30.280Z,36.56
2018-05-13T13:19:44.849Z,38.01
2018-05-13T13:21:02.933Z,38.49
2018-05-13T13:22:08.847Z,38.81
2018-05-13T13:23:13.141Z,38.77
2018-05-13T13:24:17.424Z,38.72
2018-05-13T13:25:22.082Z,38.42
2018-05-13T13:26:26.272Z,38.35
2018-05-13T13:27:33.290Z,38.59
2018-05-13T13:28:37.485Z,38.38
2018-05-13T13:29:41.685Z,38.25
2018-05-13T13:30:46.234Z,37.06
2018-05-13T13:31:50.883Z,36.41
2018-05-13T13:32:55.179Z,36.49
2018-05-13T13:33:59.425Z,36.70
2018-05-13T13:35:03.581Z,36.30
2018-05-13T13:36:07.761Z,36.36
2018-05-13T13:37:11.899Z,36.19
2018-05-13T13:38:16.129Z,35.90
2018-05-13T13:39:20.425Z,36.29
2018-05-13T13:40:24.599Z,37.11
2018-05-13T13:41:28.709Z,37.71
2018-05-13T13:42:32.831Z,37.22
2018-05-13T13:43:37.403Z,36.81
2018-05-13T13:44:42.590Z,36.40
2018-05-13T13:45:46.960Z,36.23
2018-05-13T13:46:51.092Z,36.66
2018-05-13T13:47:55.389Z,36.95
2018-05-13T13:48:59.647Z,37.71
2018-05-13T13:50:03.835Z,39.00
2018-05-13T13:51:07.969Z,39.96
2018-05-13T13:52:12.125Z,40.23
2018-05-13T13:53:16.449Z,39.52
2018-05-13T13:54:21.293Z,39.20
2018-05-13T13:55:25.423Z,38.16